Isle of Rum, United Kingdom
Current Conditions -  °F | °C
As of 10:20 PM on Thursday 23 Oct 2014 (Local Time) from EGPU Reporting Station
Clear Clear  
Wind Chill: 50°   Ceiling: Unl
Heat Index: 50°   Visibility: 6mi
Dew Point: 45°   Wind: 18mph
Humidity: 82%   Direction: 250°WSW
Pressure: 29.65"   Gusts: NA
Location:  57.01°N, 6.28°W
Report Text: EGPU 232120Z AUTO 25016KT 9999 NCD 10/07 Q1004 RERA
Loading
Personal Weather Stations






























Interactive Weather Map New forecast layout! Learn more

10-Day Weather Forecast

Advertisements
Track Severe Weather on mobile